createdAt,value
2022-10-13T00:01:15.022Z,80.68
2022-10-13T00:03:46.139Z,80.61
2022-10-13T00:06:24.679Z,80.74
2022-10-13T00:08:52.093Z,80.69
2022-10-13T00:11:31.454Z,80.76
2022-10-13T00:14:03.607Z,80.64
2022-10-13T00:16:33.696Z,80.64
2022-10-13T00:19:00.766Z,80.78
2022-10-13T00:21:28.828Z,80.75
2022-10-13T00:23:56.875Z,80.94
2022-10-13T00:26:26.268Z,81.06
2022-10-13T00:28:55.811Z,81.17
2022-10-13T00:31:30.008Z,81.17
2022-10-13T00:33:59.829Z,81.31
2022-10-13T00:36:27.232Z,81.65
2022-10-13T00:38:56.174Z,81.81
2022-10-13T00:41:23.336Z,82.01
2022-10-13T00:43:55.181Z,82.04
2022-10-13T00:46:25.234Z,82.03
2022-10-13T00:49:00.865Z,81.82
2022-10-13T00:51:34.126Z,82.06
2022-10-13T00:54:05.848Z,81.76
2022-10-13T00:56:36.967Z,81.79
2022-10-13T00:59:11.195Z,82.07
2022-10-13T01:01:40.053Z,82.21
2022-10-13T01:04:07.108Z,82.24
2022-10-13T01:06:34.531Z,82.08
2022-10-13T01:09:01.592Z,82.34
2022-10-13T01:11:56.584Z,82.21
2022-10-13T01:14:45.208Z,82.16
2022-10-13T01:17:41.903Z,81.97
2022-10-13T01:20:36.771Z,82.07
2022-10-13T01:24:08.999Z,82.04
2022-10-13T01:27:01.207Z,82.13
2022-10-13T01:29:52.878Z,82.24
2022-10-13T01:32:38.371Z,82.29
2022-10-13T01:35:20.443Z,82.36
2022-10-13T01:38:04.437Z,82.35
2022-10-13T01:41:02.236Z,82.45
2022-10-13T01:43:42.879Z,82.46
2022-10-13T01:46:29.382Z,82.25
2022-10-13T01:49:02.039Z,82.56
2022-10-13T01:51:31.508Z,82.68
2022-10-13T01:53:58.986Z,82.46
2022-10-13T01:56:26.336Z,82.49
2022-10-13T01:58:59.540Z,82.44
2022-10-13T02:01:41.027Z,82.49
2022-10-13T02:04:48.740Z,82.35
2022-10-13T02:07:19.687Z,82.32
2022-10-13T02:10:02.589Z,82.42
2022-10-13T02:13:04.770Z,82.59
2022-10-13T02:15:40.614Z,82.64
2022-10-13T02:18:12.219Z,82.70
2022-10-13T02:20:42.330Z,82.40
2022-10-13T02:23:18.448Z,82.63
2022-10-13T02:25:47.554Z,82.63
2022-10-13T02:28:16.060Z,82.67
2022-10-13T02:30:46.512Z,82.45
2022-10-13T02:33:15.458Z,82.71
2022-10-13T02:35:43.230Z,82.68
2022-10-13T02:38:12.518Z,82.80
2022-10-13T02:40:39.676Z,82.64
2022-10-13T02:43:06.976Z,82.71
2022-10-13T02:45:34.471Z,82.52
2022-10-13T02:48:01.458Z,82.50
2022-10-13T02:50:29.546Z,82.57
2022-10-13T02:52:56.850Z,82.64
2022-10-13T02:55:23.832Z,82.44
2022-10-13T02:57:58.222Z,82.70
2022-10-13T03:00:25.798Z,82.60
2022-10-13T03:02:53.062Z,82.54
2022-10-13T03:05:20.213Z,82.59
2022-10-13T03:07:47.247Z,82.51
2022-10-13T03:14:37.117Z,82.57
2022-10-13T03:17:04.584Z,82.54
2022-10-13T03:19:31.964Z,82.50
2022-10-13T03:21:58.882Z,82.59
2022-10-13T03:24:25.820Z,82.67
2022-10-13T03:26:52.782Z,83.01
2022-10-13T03:29:21.000Z,82.95
2022-10-13T03:31:48.069Z,83.19
2022-10-13T03:34:17.453Z,83.12
2022-10-13T03:36:44.327Z,83.18
2022-10-13T03:39:11.334Z,83.08
2022-10-13T03:41:38.285Z,83.11
2022-10-13T03:44:05.526Z,83.09
2022-10-13T03:46:32.502Z,82.95
2022-10-13T03:48:59.548Z,83.09
2022-10-13T03:51:26.555Z,83.07
2022-10-13T03:53:53.977Z,83.06
2022-10-13T03:56:25.252Z,82.90
2022-10-13T03:58:55.549Z,83.24
2022-10-13T04:01:25.964Z,83.23
2022-10-13T04:03:55.711Z,83.36
2022-10-13T04:06:26.047Z,83.42
2022-10-13T04:08:54.471Z,83.27
2022-10-13T04:11:22.510Z,83.44
2022-10-13T04:13:58.178Z,83.17
2022-10-13T04:16:29.736Z,83.45
2022-10-13T04:19:04.722Z,83.51
2022-10-13T04:21:35.045Z,83.62
2022-10-13T04:24:03.389Z,83.56
2022-10-13T04:26:34.349Z,83.58
2022-10-13T04:29:09.476Z,83.71
2022-10-13T04:31:37.096Z,83.71
2022-10-13T04:34:05.621Z,83.91
2022-10-13T04:36:32.598Z,83.83
2022-10-13T04:38:59.479Z,83.74
2022-10-13T04:41:27.865Z,83.83
2022-10-13T04:43:55.290Z,83.88
2022-10-13T04:46:26.789Z,84.12
2022-10-13T04:48:57.474Z,84.00
2022-10-13T04:51:29.632Z,84.04
2022-10-13T04:54:01.936Z,84.19
2022-10-13T04:56:29.458Z,84.51
2022-10-13T04:59:05.891Z,84.22
2022-10-13T05:01:33.497Z,83.89
2022-10-13T05:04:03.723Z,83.90
2022-10-13T05:06:58.762Z,83.79
2022-10-13T05:09:27.911Z,83.89
2022-10-13T05:11:55.281Z,83.75
2022-10-13T05:14:23.438Z,83.63
2022-10-13T05:16:50.589Z,83.74
2022-10-13T05:19:17.625Z,83.51
2022-10-13T05:21:44.887Z,83.45
2022-10-13T05:24:13.722Z,83.52
2022-10-13T05:26:42.008Z,83.52
2022-10-13T05:29:09.067Z,83.50
2022-10-13T05:31:36.784Z,83.62
2022-10-13T05:34:03.856Z,83.61
2022-10-13T05:36:34.762Z,83.61
2022-10-13T05:39:10.026Z,83.75
2022-10-13T05:41:39.256Z,83.69
2022-10-13T05:44:13.969Z,83.79
2022-10-13T05:46:53.875Z,83.82
2022-10-13T05:49:20.980Z,83.88
2022-10-13T05:51:55.655Z,84.05
2022-10-13T05:54:30.078Z,83.99
2022-10-13T05:57:12.147Z,84.01
2022-10-13T05:59:49.222Z,84.15
2022-10-13T06:02:20.329Z,84.22
2022-10-13T06:04:53.827Z,84.39
2022-10-13T06:07:21.200Z,84.21
2022-10-13T06:09:49.043Z,84.21
2022-10-13T06:12:23.288Z,84.09
2022-10-13T06:14:50.391Z,84.01
2022-10-13T06:17:17.397Z,84.18
2022-10-13T06:19:45.436Z,84.08
2022-10-13T06:22:12.673Z,83.96
2022-10-13T06:24:39.724Z,83.93
2022-10-13T06:27:10.595Z,84.20
2022-10-13T06:29:38.152Z,84.10
2022-10-13T06:32:06.091Z,83.95
2022-10-13T06:34:33.528Z,83.93
2022-10-13T06:37:00.575Z,84.08
2022-10-13T06:39:27.600Z,84.04
2022-10-13T06:41:55.335Z,84.08
2022-10-13T06:44:33.227Z,83.97
2022-10-13T06:47:03.856Z,83.83
2022-10-13T06:49:31.063Z,83.75
2022-10-13T06:52:00.136Z,83.61
2022-10-13T06:54:27.170Z,83.56
2022-10-13T06:56:55.464Z,83.25
2022-10-13T06:59:22.552Z,82.99
2022-10-13T07:01:51.712Z,82.81
2022-10-13T07:04:22.989Z,82.73
2022-10-13T07:06:50.929Z,82.66
2022-10-13T07:09:18.019Z,82.39
2022-10-13T07:11:50.932Z,82.42
2022-10-13T07:14:17.963Z,82.29
2022-10-13T07:16:45.020Z,82.40
2022-10-13T07:19:12.321Z,82.46
2022-10-13T07:21:41.786Z,82.48
2022-10-13T07:24:11.307Z,82.45
2022-10-13T07:26:38.537Z,82.36
2022-10-13T07:29:08.048Z,82.38
2022-10-13T07:31:38.448Z,82.32
2022-10-13T07:34:06.677Z,82.11
2022-10-13T07:36:33.907Z,82.08
2022-10-13T07:39:03.322Z,82.08
2022-10-13T07:41:31.468Z,81.88
2022-10-13T07:43:58.676Z,81.91
2022-10-13T07:46:25.839Z,81.84
2022-10-13T07:48:54.403Z,81.71
2022-10-13T07:51:23.328Z,81.45
2022-10-13T07:53:50.870Z,81.40
2022-10-13T07:56:18.027Z,81.16
2022-10-13T07:58:48.249Z,81.16
2022-10-13T08:01:16.702Z,81.13
2022-10-13T08:03:49.140Z,81.26
2022-10-13T08:06:18.568Z,81.21
2022-10-13T08:08:46.040Z,81.15
2022-10-13T08:11:17.913Z,81.19
2022-10-13T08:13:50.550Z,81.29
2022-10-13T08:16:23.491Z,81.17
2022-10-13T08:18:50.701Z,81.43
2022-10-13T08:21:52.798Z,81.20
2022-10-13T08:24:15.840Z,81.10
2022-10-13T08:26:43.960Z,81.05
2022-10-13T08:29:28.138Z,80.91
2022-10-13T08:31:55.767Z,80.93
2022-10-13T08:34:24.778Z,80.76
2022-10-13T08:36:56.254Z,80.57
2022-10-13T08:39:25.180Z,80.37
2022-10-13T08:41:54.213Z,80.21
2022-10-13T08:47:49.077Z,79.66
2022-10-13T08:50:23.403Z,79.04
2022-10-13T08:53:01.748Z,79.26
2022-10-13T08:56:11.420Z,78.86
2022-10-13T08:58:43.840Z,78.54
2022-10-13T09:01:10.743Z,78.24
2022-10-13T09:04:31.907Z,78.01
2022-10-13T09:07:27.669Z,78.20
2022-10-13T09:09:56.293Z,77.70
2022-10-13T09:12:25.616Z,77.51
2022-10-13T09:15:09.696Z,77.41
2022-10-13T09:17:41.349Z,76.81
2022-10-13T09:20:22.440Z,76.78
2022-10-13T09:23:23.034Z,76.16
2022-10-13T09:25:52.750Z,76.06
2022-10-13T09:28:28.356Z,76.23
2022-10-13T09:31:24.276Z,75.81
2022-10-13T09:34:13.972Z,75.69
2022-10-13T09:37:06.177Z,75.88
2022-10-13T09:39:34.068Z,75.75
2022-10-13T09:42:25.540Z,75.29
2022-10-13T09:45:01.300Z,75.27
2022-10-13T09:47:33.070Z,74.95
2022-10-13T09:50:19.451Z,74.70
2022-10-13T09:52:48.570Z,74.58
2022-10-13T09:55:35.345Z,74.32
2022-10-13T09:58:30.177Z,74.31
2022-10-13T10:00:57.806Z,74.38
2022-10-13T10:03:33.775Z,74.09
2022-10-13T10:06:06.842Z,73.99
2022-10-13T10:09:05.034Z,73.87
2022-10-13T10:11:43.270Z,74.28
2022-10-13T10:14:25.461Z,74.50
2022-10-13T10:17:23.487Z,74.33
2022-10-13T10:20:41.814Z,74.39
2022-10-13T10:23:29.138Z,74.12
2022-10-13T10:26:32.642Z,74.33
2022-10-13T10:29:28.787Z,73.85
2022-10-13T10:32:19.532Z,73.59
2022-10-13T10:35:04.709Z,73.68
2022-10-13T10:38:00.812Z,73.15
2022-10-13T10:40:58.402Z,73.36
2022-10-13T10:43:51.281Z,73.16
2022-10-13T10:46:34.735Z,73.54
2022-10-13T10:49:15.497Z,73.46
2022-10-13T10:51:43.614Z,73.17
2022-10-13T10:54:21.924Z,73.26
2022-10-13T10:57:08.604Z,73.35
2022-10-13T11:03:33.601Z,74.11
2022-10-13T11:06:06.009Z,74.74
2022-10-13T11:08:46.996Z,75.16
2022-10-13T11:11:26.677Z,75.76
2022-10-13T11:14:06.830Z,76.23
2022-10-13T11:16:58.798Z,76.54
2022-10-13T11:19:33.449Z,76.64
2022-10-13T11:22:00.385Z,76.52
2022-10-13T11:24:39.360Z,77.14
2022-10-13T11:27:11.872Z,77.37
2022-10-13T11:29:49.023Z,77.79
2022-10-13T11:32:25.300Z,78.28
2022-10-13T11:35:12.590Z,78.67
2022-10-13T11:38:06.826Z,78.89
2022-10-13T11:41:04.004Z,79.75
2022-10-13T11:44:04.236Z,80.60
2022-10-13T11:47:02.731Z,81.27
2022-10-13T11:50:21.268Z,81.63
2022-10-13T11:53:23.151Z,82.00
2022-10-13T11:55:55.805Z,82.24
2022-10-13T11:58:25.810Z,82.56
2022-10-13T12:01:04.595Z,82.72
2022-10-13T12:03:41.977Z,83.01
2022-10-13T12:06:35.569Z,83.02
2022-10-13T12:09:19.122Z,83.31
2022-10-13T12:11:47.638Z,83.49
2022-10-13T12:14:24.146Z,83.61
2022-10-13T12:17:00.093Z,83.64
2022-10-13T12:19:31.060Z,83.83
2022-10-13T12:22:01.914Z,83.95
2022-10-13T12:24:31.204Z,83.96
2022-10-13T12:26:59.283Z,84.11
2022-10-13T12:29:34.833Z,84.19
2022-10-13T12:32:06.172Z,84.35
2022-10-13T12:34:35.984Z,84.42
2022-10-13T12:37:21.861Z,84.41
2022-10-13T12:39:49.429Z,84.67
2022-10-13T12:42:18.963Z,84.80
2022-10-13T12:44:46.547Z,84.66
2022-10-13T12:47:44.682Z,84.64
2022-10-13T12:50:29.944Z,84.41
2022-10-13T12:53:12.179Z,84.27
2022-10-13T12:56:03.682Z,84.46
2022-10-13T12:58:35.033Z,84.92
2022-10-13T13:01:14.125Z,85.15
2022-10-13T13:03:43.671Z,85.50
2022-10-13T13:06:26.796Z,85.82
2022-10-13T13:09:26.932Z,85.64
2022-10-13T13:12:13.209Z,86.16
2022-10-13T13:14:49.524Z,86.71
2022-10-13T13:17:45.393Z,86.92
2022-10-13T13:20:32.815Z,87.11
2022-10-13T13:23:00.746Z,87.30
2022-10-13T13:25:28.044Z,87.38
2022-10-13T13:27:55.107Z,87.11
2022-10-13T13:30:24.121Z,86.92
2022-10-13T13:32:51.528Z,86.87
2022-10-13T13:35:18.926Z,87.10
2022-10-13T13:37:52.301Z,87.35
2022-10-13T13:40:27.618Z,87.47
2022-10-13T13:42:55.846Z,87.93
2022-10-13T13:45:26.536Z,88.03
2022-10-13T13:47:59.552Z,88.25
2022-10-13T13:50:34.623Z,88.16
2022-10-13T13:53:04.926Z,88.36
2022-10-13T13:55:32.586Z,88.40
2022-10-13T13:58:00.881Z,88.85
2022-10-13T14:00:27.991Z,88.88
2022-10-13T14:02:57.195Z,88.96
2022-10-13T14:05:24.721Z,89.20
2022-10-13T14:07:55.088Z,89.51
2022-10-13T14:10:22.322Z,89.53
2022-10-13T14:12:49.314Z,89.49
2022-10-13T14:15:17.108Z,89.64
2022-10-13T14:17:44.181Z,89.50
2022-10-13T14:20:11.663Z,89.90
2022-10-13T14:22:39.530Z,89.75
2022-10-13T14:25:07.648Z,89.68
2022-10-13T14:27:35.519Z,89.90
2022-10-13T14:30:09.257Z,89.91
2022-10-13T14:32:39.536Z,89.89
2022-10-13T14:35:08.200Z,90.17
2022-10-13T14:37:35.911Z,90.25
2022-10-13T14:40:03.528Z,90.38
2022-10-13T14:42:31.496Z,90.57
2022-10-13T14:44:58.611Z,90.52
2022-10-13T14:47:25.661Z,90.70
2022-10-13T14:49:52.805Z,90.77
2022-10-13T14:52:19.809Z,91.02
2022-10-13T14:54:48.889Z,91.08
2022-10-13T14:57:16.319Z,91.32
2022-10-13T14:59:43.974Z,91.38
2022-10-13T15:02:12.052Z,91.49
2022-10-13T15:04:42.114Z,91.36
2022-10-13T15:07:09.140Z,91.34
2022-10-13T15:09:52.643Z,91.40
2022-10-13T15:12:25.967Z,91.45
2022-10-13T15:14:52.983Z,91.51
2022-10-13T15:17:20.432Z,91.50
2022-10-13T15:19:47.765Z,91.78
2022-10-13T15:22:14.799Z,91.70
2022-10-13T15:24:43.819Z,91.82
2022-10-13T15:27:14.146Z,91.83
2022-10-13T15:29:41.173Z,91.86
2022-10-13T15:32:18.016Z,91.63
2022-10-13T15:34:49.858Z,91.28
2022-10-13T15:37:16.952Z,91.29
2022-10-13T15:39:43.982Z,91.32
2022-10-13T15:42:11.629Z,91.23
2022-10-13T15:45:08.235Z,91.71
2022-10-13T15:47:25.654Z,91.89
2022-10-13T15:49:52.743Z,91.83
2022-10-13T15:52:20.707Z,91.68
2022-10-13T15:54:51.319Z,91.55
2022-10-13T15:57:18.595Z,91.63
2022-10-13T15:59:45.575Z,91.71
2022-10-13T16:02:12.576Z,91.78
2022-10-13T16:04:39.661Z,91.50
2022-10-13T16:07:06.680Z,91.36
2022-10-13T16:09:33.761Z,91.21
2022-10-13T16:12:02.115Z,91.35
2022-10-13T16:14:29.260Z,91.35
2022-10-13T16:16:58.129Z,91.34
2022-10-13T16:19:25.124Z,91.34
2022-10-13T16:21:52.177Z,91.25
2022-10-13T16:24:20.491Z,91.12
2022-10-13T16:26:47.445Z,91.29
2022-10-13T16:29:15.427Z,91.34
2022-10-13T16:31:42.410Z,91.13
2022-10-13T16:34:11.047Z,91.13
2022-10-13T16:36:38.039Z,91.25
2022-10-13T16:39:05.042Z,91.38
2022-10-13T16:41:32.047Z,91.50
2022-10-13T16:43:59.073Z,91.65
2022-10-13T16:46:26.170Z,91.71
2022-10-13T16:48:53.356Z,91.71
2022-10-13T16:51:24.421Z,91.99
2022-10-13T16:53:54.639Z,92.01
2022-10-13T16:56:24.452Z,92.09
2022-10-13T16:59:01.759Z,92.37
2022-10-13T17:01:30.407Z,92.46
2022-10-13T17:03:57.903Z,92.47
2022-10-13T17:06:27.549Z,92.59
2022-10-13T17:09:00.428Z,92.60
2022-10-13T17:11:30.998Z,92.58
2022-10-13T17:14:00.495Z,92.64
2022-10-13T17:16:31.309Z,92.82
2022-10-13T17:18:58.835Z,92.89
2022-10-13T17:21:33.740Z,92.81
2022-10-13T17:24:00.799Z,92.59
2022-10-13T17:26:27.959Z,92.50
2022-10-13T17:28:56.185Z,92.36
2022-10-13T17:31:24.839Z,91.90
2022-10-13T17:33:52.519Z,91.67
2022-10-13T17:36:28.966Z,91.75
2022-10-13T17:39:04.228Z,91.69
2022-10-13T17:41:31.906Z,91.77
2022-10-13T17:43:58.927Z,91.57
2022-10-13T17:46:38.425Z,91.42
2022-10-13T17:49:11.415Z,91.68
2022-10-13T17:51:43.676Z,91.33
2022-10-13T17:54:16.145Z,91.33
2022-10-13T17:56:45.184Z,91.17
2022-10-13T17:59:14.124Z,91.19
2022-10-13T18:01:42.610Z,91.42
2022-10-13T18:04:16.566Z,91.26
2022-10-13T18:06:45.068Z,91.08
2022-10-13T18:09:18.417Z,90.99
2022-10-13T18:11:51.206Z,91.43
2022-10-13T18:14:21.495Z,91.30
2022-10-13T18:16:50.676Z,91.52
2022-10-13T18:19:19.485Z,91.60
2022-10-13T18:21:46.780Z,91.36
2022-10-13T18:24:15.320Z,91.08
2022-10-13T18:26:42.416Z,91.31
2022-10-13T18:29:12.224Z,91.40
2022-10-13T18:31:41.509Z,91.02
2022-10-13T18:34:15.982Z,91.25
2022-10-13T18:36:47.330Z,91.25
2022-10-13T18:39:15.523Z,91.50
2022-10-13T18:41:46.065Z,91.53
2022-10-13T18:44:13.866Z,91.48
2022-10-13T18:46:41.689Z,91.85
2022-10-13T18:49:13.728Z,91.58
2022-10-13T18:51:42.309Z,91.67
2022-10-13T18:54:10.728Z,91.63
2022-10-13T18:56:39.878Z,91.69
2022-10-13T18:59:08.427Z,91.82
2022-10-13T19:01:38.083Z,91.64
2022-10-13T19:04:06.450Z,91.70
2022-10-13T19:06:33.664Z,91.73
2022-10-13T19:09:07.281Z,91.50
2022-10-13T19:11:37.585Z,91.72
2022-10-13T19:14:11.396Z,91.95
2022-10-13T19:16:42.280Z,91.74
2022-10-13T19:19:09.771Z,91.70
2022-10-13T19:21:38.603Z,91.84
2022-10-13T19:24:07.886Z,91.84
2022-10-13T19:26:37.083Z,91.87
2022-10-13T19:29:13.491Z,92.00
2022-10-13T19:31:42.343Z,92.04
2022-10-13T19:34:12.296Z,92.22
2022-10-13T19:36:44.671Z,92.16
2022-10-13T19:39:24.147Z,92.23
2022-10-13T19:41:54.359Z,92.04
2022-10-13T19:44:23.786Z,91.87
2022-10-13T19:46:52.307Z,91.79
2022-10-13T19:49:23.100Z,91.75
2022-10-13T19:51:50.490Z,91.87
2022-10-13T19:54:20.479Z,92.22
2022-10-13T19:56:50.262Z,92.36
2022-10-13T19:59:19.735Z,92.45
2022-10-13T20:01:47.594Z,92.58
2022-10-13T20:04:18.412Z,92.79
2022-10-13T20:06:46.263Z,92.98
2022-10-13T20:09:13.444Z,93.00
2022-10-13T20:11:40.819Z,93.02
2022-10-13T20:14:08.926Z,93.02
2022-10-13T20:16:37.834Z,93.04
2022-10-13T20:19:06.902Z,92.89
2022-10-13T20:21:34.016Z,93.17
2022-10-13T20:24:01.013Z,93.19
2022-10-13T20:26:28.151Z,93.14
2022-10-13T20:28:55.251Z,93.10
2022-10-13T20:31:23.093Z,93.13
2022-10-13T20:33:56.310Z,92.94
2022-10-13T20:36:25.756Z,93.17
2022-10-13T20:38:53.380Z,93.00
2022-10-13T20:41:32.611Z,93.01
2022-10-13T20:44:01.286Z,93.28
2022-10-13T20:46:31.038Z,92.86
2022-10-13T20:49:13.798Z,92.91
2022-10-13T20:51:43.138Z,92.97
2022-10-13T20:54:15.070Z,92.88
2022-10-13T20:56:43.562Z,92.88
2022-10-13T20:59:14.748Z,92.93
2022-10-13T21:01:42.577Z,93.03
2022-10-13T21:04:11.337Z,92.82
2022-10-13T21:06:40.771Z,92.95
2022-10-13T21:09:08.941Z,92.97
2022-10-13T21:11:39.612Z,92.96
2022-10-13T21:14:06.955Z,92.82
2022-10-13T21:16:34.678Z,92.95
2022-10-13T21:19:02.992Z,93.03
2022-10-13T21:21:34.450Z,92.96
2022-10-13T21:24:06.564Z,93.00
2022-10-13T21:26:35.108Z,93.12
2022-10-13T21:29:02.591Z,92.87
2022-10-13T21:31:30.617Z,93.17
2022-10-13T21:33:59.748Z,93.10
2022-10-13T21:36:32.421Z,93.23
2022-10-13T21:39:04.704Z,93.21
2022-10-13T21:41:33.100Z,93.23
2022-10-13T21:44:00.029Z,93.17
2022-10-13T21:46:34.339Z,93.15
2022-10-13T21:49:05.331Z,93.30
2022-10-13T21:51:36.284Z,93.20
2022-10-13T21:54:09.467Z,93.51
2022-10-13T21:56:38.062Z,93.31
2022-10-13T21:59:06.015Z,93.50
2022-10-13T22:01:34.218Z,93.49
2022-10-13T22:04:06.266Z,93.45
2022-10-13T22:06:34.574Z,93.58
2022-10-13T22:09:05.022Z,93.46
2022-10-13T22:11:35.083Z,93.38
2022-10-13T22:14:07.856Z,93.21
2022-10-13T22:16:40.448Z,93.19
2022-10-13T22:19:07.623Z,93.09
2022-10-13T22:21:40.787Z,92.93
2022-10-13T22:24:12.762Z,93.22
2022-10-13T22:26:43.166Z,93.24
2022-10-13T22:29:14.600Z,93.45
2022-10-13T22:31:43.494Z,93.68
2022-10-13T22:34:13.020Z,93.73
2022-10-13T22:36:44.855Z,94.00
2022-10-13T22:39:13.485Z,94.13
2022-10-13T22:41:41.183Z,94.14
2022-10-13T22:44:08.262Z,94.04
2022-10-13T22:46:38.220Z,94.21
2022-10-13T22:49:06.779Z,93.89
2022-10-13T22:51:36.682Z,93.80
2022-10-13T22:54:05.591Z,93.77
2022-10-13T22:56:34.739Z,93.65
2022-10-13T22:59:08.284Z,93.77
2022-10-13T23:01:36.529Z,93.66
2022-10-13T23:04:04.159Z,93.79
2022-10-13T23:06:34.692Z,93.88
2022-10-13T23:09:09.386Z,94.12
2022-10-13T23:11:38.829Z,94.08
2022-10-13T23:14:08.411Z,94.12
2022-10-13T23:16:35.579Z,94.13
2022-10-13T23:19:05.835Z,94.15
2022-10-13T23:21:33.107Z,94.25
2022-10-13T23:24:05.749Z,94.29
2022-10-13T23:26:35.012Z,94.46
2022-10-13T23:29:02.744Z,94.45
2022-10-13T23:31:29.984Z,94.49
2022-10-13T23:33:58.610Z,94.54
2022-10-13T23:36:30.215Z,94.34
2022-10-13T23:39:06.676Z,94.62
2022-10-13T23:41:34.556Z,94.79
2022-10-13T23:44:04.416Z,94.67
2022-10-13T23:46:31.615Z,94.76
2022-10-13T23:48:58.610Z,94.68
2022-10-13T23:51:26.470Z,94.66
2022-10-13T23:53:54.415Z,94.71
2022-10-13T23:56:22.400Z,94.87
2022-10-13T23:58:49.457Z,94.78
